TRA33T EHEH-LKPR
Flight info
| Callsign | TRA33T |
|---|---|
| Flight time | 1h 1m |
| Altitude | 35000 |
| Route | VELNI Y869 SUMOP DCT ONUNE DCT GMH DCT ESAMA DCT OSBIT DCT KOMIB DCT TONSU Z35 ODOMO DCT LOMKI |
| Aircraft | B738/M-SDE2E3FGHIRWXY/LB1 |
Departure
| Time | 2026-05-04 16:38 |
|---|---|
| Airport | Eindhoven Airport (EHEH) |
Arrival
| Time | 2026-05-04 17:39 |
|---|---|
| Airport | Václav Havel Airport Prague (LKPR) |
| Time | Latitude | Longitude | Altitude | Speed | Heading |
|---|---|---|---|---|---|
| 2026-05-04 16:07 | 51.45614 | 5.38785 | 74 ft | 0 kts | 125° |
| 2026-05-04 16:29 | 51.45639 | 5.38728 | 66 ft | 4 kts | 125° |
| 2026-05-04 16:30 | 51.45627 | 5.38648 | 70 ft | 0 kts | 35° |
| 2026-05-04 16:33 | 51.45639 | 5.38662 | 63 ft | 5 kts | 35° |
| 2026-05-04 16:34 | 51.45717 | 5.38750 | 74 ft | 8 kts | 35° |
| 2026-05-04 16:34 | 51.45763 | 5.38802 | 72 ft | 9 kts | 35° |
| 2026-05-04 16:35 | 51.45931 | 5.38990 | 68 ft | 9 kts | 31° |
| 2026-05-04 16:35 | 51.46040 | 5.38828 | 72 ft | 7 kts | 305° |
| 2026-05-04 16:36 | 51.46069 | 5.38763 | 71 ft | 7 kts | 305° |
| 2026-05-04 16:36 | 51.46091 | 5.38662 | 74 ft | 4 kts | 227° |
| 2026-05-04 16:37 | 51.46080 | 5.38648 | 68 ft | 0 kts | 215° |
| 2026-05-04 16:37 | 51.46063 | 5.38629 | 71 ft | 7 kts | 215° |
| 2026-05-04 16:37 | 51.45341 | 5.37820 | 76 ft | 133 kts | 215° |
| 2026-05-04 16:38 | 51.43408 | 5.35695 | 1054 ft | 183 kts | 214° |
| 2026-05-04 16:39 | 51.40167 | 5.32221 | 3667 ft | 190 kts | 204° |
| 2026-05-04 16:39 | 51.37451 | 5.33045 | 4376 ft | 230 kts | 133° |
| 2026-05-04 16:40 | 51.36766 | 5.38028 | 5739 ft | 240 kts | 88° |
| 2026-05-04 16:40 | 51.36870 | 5.43390 | 7365 ft | 244 kts | 89° |
| 2026-05-04 16:41 | 51.36873 | 5.48876 | 8884 ft | 250 kts | 90° |
| 2026-05-04 16:41 | 51.36823 | 5.57372 | 10837 ft | 270 kts | 90° |
| 2026-05-04 16:42 | 51.37158 | 5.67383 | 11637 ft | 330 kts | 68° |
| 2026-05-04 16:43 | 51.39231 | 5.74352 | 12306 ft | 362 kts | 63° |
| 2026-05-04 16:43 | 51.41461 | 5.81714 | 13748 ft | 371 kts | 64° |
| 2026-05-04 16:43 | 51.42579 | 5.85465 | 14396 ft | 374 kts | 64° |
| 2026-05-04 16:44 | 51.43250 | 6.01849 | 16852 ft | 386 kts | 104° |
| 2026-05-04 16:45 | 51.42080 | 6.10344 | 18115 ft | 394 kts | 104° |
| 2026-05-04 16:46 | 51.40336 | 6.23386 | 19758 ft | 405 kts | 104° |
| 2026-05-04 16:46 | 51.39146 | 6.32320 | 20667 ft | 415 kts | 104° |
| 2026-05-04 16:47 | 51.37931 | 6.41416 | 21677 ft | 421 kts | 105° |
| 2026-05-04 16:47 | 51.36688 | 6.50655 | 22593 ft | 428 kts | 105° |
| 2026-05-04 16:48 | 51.34774 | 6.64774 | 23856 ft | 438 kts | 106° |
| 2026-05-04 16:48 | 51.34122 | 6.69550 | 23958 ft | 440 kts | 106° |
| 2026-05-04 16:49 | 51.32800 | 6.79186 | 24329 ft | 447 kts | 105° |
| 2026-05-04 16:49 | 51.31467 | 6.88859 | 25260 ft | 446 kts | 106° |
| 2026-05-04 16:50 | 51.30110 | 6.98618 | 25919 ft | 453 kts | 106° |
| 2026-05-04 16:50 | 51.28730 | 7.08477 | 26610 ft | 457 kts | 106° |
| 2026-05-04 16:51 | 51.27331 | 7.18416 | 27194 ft | 461 kts | 106° |
| 2026-05-04 16:51 | 51.26621 | 7.23433 | 27434 ft | 465 kts | 106° |
| 2026-05-04 16:51 | 51.25184 | 7.33534 | 28033 ft | 468 kts | 107° |
| 2026-05-04 16:52 | 51.23727 | 7.43712 | 28649 ft | 472 kts | 107° |
| 2026-05-04 16:52 | 51.22991 | 7.48829 | 28947 ft | 475 kts | 107° |
| 2026-05-04 16:53 | 51.21510 | 7.59086 | 29715 ft | 473 kts | 107° |
| 2026-05-04 16:53 | 51.19273 | 7.74439 | 30499 ft | 476 kts | 107° |
| 2026-05-04 16:54 | 51.18530 | 7.79504 | 30833 ft | 475 kts | 107° |
| 2026-05-04 16:55 | 51.11612 | 7.95962 | 32096 ft | 446 kts | 149° |
| 2026-05-04 16:55 | 51.06609 | 8.01744 | 32858 ft | 444 kts | 149° |
| 2026-05-04 16:56 | 51.01630 | 8.07557 | 33426 ft | 444 kts | 148° |
| 2026-05-04 16:56 | 50.94185 | 8.16329 | 34246 ft | 443 kts | 148° |
| 2026-05-04 16:57 | 50.91715 | 8.19239 | 34481 ft | 443 kts | 148° |
| 2026-05-04 16:57 | 50.86754 | 8.25072 | 34890 ft | 444 kts | 148° |
| 2026-05-04 16:58 | 50.76745 | 8.36787 | 34984 ft | 446 kts | 148° |
| 2026-05-04 17:00 | 50.61929 | 8.54013 | 34986 ft | 440 kts | 148° |
| 2026-05-04 17:01 | 50.49556 | 8.68290 | 34991 ft | 443 kts | 148° |
| 2026-05-04 17:02 | 50.39585 | 8.79733 | 34976 ft | 445 kts | 149° |
| 2026-05-04 17:02 | 50.34870 | 8.86063 | 34983 ft | 454 kts | 135° |
| 2026-05-04 17:03 | 50.32978 | 8.90057 | 34978 ft | 459 kts | 126° |
| 2026-05-04 17:03 | 50.28872 | 9.03729 | 34973 ft | 464 kts | 118° |
| 2026-05-04 17:04 | 50.23618 | 9.22107 | 34970 ft | 463 kts | 119° |
| 2026-05-04 17:05 | 50.18269 | 9.40326 | 34966 ft | 463 kts | 118° |
| 2026-05-04 17:06 | 50.14231 | 9.53998 | 34970 ft | 463 kts | 118° |
| 2026-05-04 17:07 | 50.10619 | 9.66170 | 34960 ft | 463 kts | 118° |
| 2026-05-04 17:07 | 50.07706 | 9.76932 | 34950 ft | 468 kts | 108° |
| 2026-05-04 17:08 | 50.06987 | 9.92185 | 34953 ft | 476 kts | 90° |
| 2026-05-04 17:09 | 50.07159 | 10.02480 | 34946 ft | 476 kts | 91° |
| 2026-05-04 17:09 | 50.07246 | 10.12790 | 34939 ft | 476 kts | 91° |
| 2026-05-04 17:10 | 50.05999 | 10.38322 | 34943 ft | 473 kts | 103° |
| 2026-05-04 17:11 | 50.04879 | 10.48399 | 34950 ft | 473 kts | 102° |
| 2026-05-04 17:12 | 50.03282 | 10.63544 | 34950 ft | 472 kts | 102° |
| 2026-05-04 17:13 | 50.00828 | 10.87003 | 34963 ft | 471 kts | 102° |
| 2026-05-04 17:14 | 49.98683 | 11.07079 | 34956 ft | 471 kts | 102° |
| 2026-05-04 17:15 | 49.97058 | 11.22126 | 34955 ft | 471 kts | 101° |
| 2026-05-04 17:16 | 49.96338 | 11.42122 | 34953 ft | 474 kts | 94° |
| 2026-05-04 17:17 | 49.95672 | 11.62555 | 34956 ft | 474 kts | 95° |
| 2026-05-04 17:17 | 49.95144 | 11.77903 | 34680 ft | 479 kts | 95° |
| 2026-05-04 17:18 | 49.94963 | 11.83087 | 34114 ft | 481 kts | 95° |
| 2026-05-04 17:18 | 49.94595 | 11.93458 | 32730 ft | 481 kts | 95° |
| 2026-05-04 17:19 | 49.94345 | 12.03755 | 31694 ft | 473 kts | 93° |
| 2026-05-04 17:19 | 49.94160 | 12.13807 | 30744 ft | 465 kts | 93° |
| 2026-05-04 17:20 | 49.93949 | 12.23748 | 29802 ft | 457 kts | 93° |
| 2026-05-04 17:20 | 49.93723 | 12.33510 | 28811 ft | 448 kts | 93° |
| 2026-05-04 17:20 | 49.93602 | 12.38320 | 28326 ft | 444 kts | 94° |
| 2026-05-04 17:21 | 49.93334 | 12.47785 | 27398 ft | 435 kts | 94° |
| 2026-05-04 17:21 | 49.93059 | 12.57085 | 26482 ft | 428 kts | 94° |
| 2026-05-04 17:22 | 49.92921 | 12.61686 | 26035 ft | 425 kts | 94° |
| 2026-05-04 17:22 | 49.92785 | 12.66238 | 25591 ft | 422 kts | 94° |
| 2026-05-04 17:23 | 49.92370 | 12.79738 | 24278 ft | 414 kts | 94° |
| 2026-05-04 17:23 | 49.92230 | 12.84186 | 23829 ft | 412 kts | 94° |
| 2026-05-04 17:23 | 49.91954 | 12.92913 | 23370 ft | 402 kts | 94° |
| 2026-05-04 17:24 | 49.91814 | 12.97301 | 23124 ft | 411 kts | 94° |
| 2026-05-04 17:24 | 49.91595 | 13.10614 | 22319 ft | 407 kts | 90° |
| 2026-05-04 17:25 | 49.91655 | 13.14982 | 22049 ft | 404 kts | 90° |
| 2026-05-04 17:25 | 49.91795 | 13.23629 | 21369 ft | 398 kts | 90° |
| 2026-05-04 17:26 | 49.91946 | 13.32190 | 20390 ft | 396 kts | 90° |
| 2026-05-04 17:26 | 49.92178 | 13.44761 | 18762 ft | 386 kts | 90° |
| 2026-05-04 17:27 | 49.92338 | 13.53027 | 17475 ft | 380 kts | 90° |
| 2026-05-04 17:27 | 49.92513 | 13.61139 | 16260 ft | 372 kts | 90° |
| 2026-05-04 17:28 | 49.92719 | 13.69080 | 15168 ft | 363 kts | 90° |
| 2026-05-04 17:29 | 49.93075 | 13.80461 | 13861 ft | 343 kts | 90° |
| 2026-05-04 17:29 | 49.93443 | 13.91357 | 12308 ft | 331 kts | 89° |
| 2026-05-04 17:30 | 49.93763 | 14.01903 | 10812 ft | 321 kts | 89° |
| 2026-05-04 17:31 | 49.93937 | 14.08757 | 9883 ft | 314 kts | 89° |
| 2026-05-04 17:31 | 49.94149 | 14.18647 | 8693 ft | 295 kts | 89° |
| 2026-05-04 17:32 | 49.94259 | 14.24956 | 7751 ft | 290 kts | 90° |
| 2026-05-04 17:33 | 49.94388 | 14.34213 | 6466 ft | 278 kts | 90° |
| 2026-05-04 17:33 | 49.94423 | 14.37154 | 6040 ft | 268 kts | 90° |
| 2026-05-04 17:34 | 49.94522 | 14.45412 | 4844 ft | 244 kts | 90° |
| 2026-05-04 17:34 | 49.94691 | 14.47995 | 4495 ft | 240 kts | 72° |
| 2026-05-04 17:35 | 49.98532 | 14.50342 | 3999 ft | 217 kts | 319° |
| 2026-05-04 17:35 | 50.00115 | 14.46716 | 4000 ft | 197 kts | 306° |
| 2026-05-04 17:35 | 50.00940 | 14.45018 | 3829 ft | 196 kts | 306° |
| 2026-05-04 17:36 | 50.01757 | 14.43329 | 3594 ft | 194 kts | 306° |
| 2026-05-04 17:36 | 50.02559 | 14.41660 | 3348 ft | 190 kts | 306° |
| 2026-05-04 17:36 | 50.03325 | 14.40066 | 3118 ft | 180 kts | 306° |
| 2026-05-04 17:36 | 50.04072 | 14.38510 | 2866 ft | 178 kts | 306° |
| 2026-05-04 17:37 | 50.04792 | 14.37011 | 2661 ft | 171 kts | 307° |
| 2026-05-04 17:37 | 50.05492 | 14.35555 | 2427 ft | 165 kts | 307° |
| 2026-05-04 17:37 | 50.06177 | 14.34132 | 2205 ft | 165 kts | 307° |
| 2026-05-04 17:37 | 50.06867 | 14.32697 | 1999 ft | 166 kts | 307° |
| 2026-05-04 17:38 | 50.07559 | 14.31262 | 1750 ft | 165 kts | 308° |
| 2026-05-04 17:38 | 50.08245 | 14.29834 | 1522 ft | 163 kts | 308° |
| 2026-05-04 17:38 | 50.08915 | 14.28428 | 1315 ft | 161 kts | 308° |
| 2026-05-04 17:38 | 50.09579 | 14.27070 | 1206 ft | 146 kts | 307° |
| 2026-05-04 17:39 | 50.10220 | 14.25756 | 1186 ft | 20 kts | 320° |
| 2026-05-04 17:39 | 50.10329 | 14.25670 | 1184 ft | 16 kts | 346° |
| 2026-05-04 17:39 | 50.10415 | 14.25658 | 1182 ft | 12 kts | 5° |
| 2026-05-04 17:40 | 50.10479 | 14.25702 | 1178 ft | 11 kts | 64° |
| 2026-05-04 17:40 | 50.10496 | 14.25827 | 1175 ft | 13 kts | 79° |
| 2026-05-04 17:40 | 50.10514 | 14.25965 | 1174 ft | 13 kts | 79° |
| 2026-05-04 17:40 | 50.10531 | 14.26102 | 1171 ft | 12 kts | 79° |
| 2026-05-04 17:41 | 50.10536 | 14.26221 | 1173 ft | 11 kts | 100° |
| 2026-05-04 17:41 | 50.10500 | 14.26324 | 1169 ft | 11 kts | 123° |
| 2026-05-04 17:41 | 50.10460 | 14.26416 | 1171 ft | 10 kts | 124° |
| 2026-05-04 17:41 | 50.10420 | 14.26506 | 1172 ft | 10 kts | 124° |
| 2026-05-04 17:42 | 50.10381 | 14.26595 | 1171 ft | 9 kts | 124° |
| 2026-05-04 17:42 | 50.10361 | 14.26649 | 1172 ft | 3 kts | 92° |
| 2026-05-04 17:42 | 50.10374 | 14.26673 | 1170 ft | 3 kts | 38° |
| 2026-05-04 17:42 | 50.10385 | 14.26685 | 1172 ft | 2 kts | 36° |
| 2026-05-04 17:43 | 50.10388 | 14.26688 | 1171 ft | 0 kts | 35° |
| 2026-05-04 17:43 | 50.10388 | 14.26689 | 1171 ft | 0 kts | 35° |